UUEE Airport Information

Runway Information
Runway 07L Length 11647 ft width 197 ft
Elevation 620 ft Threshold 0 ft Heading 75
Runway 25R Length 11647 ft Width 197 ft
Elevation 622 ft Threshold 0 ft Heading 255
Runway 07R Length 12139 ft width 197 ft
Elevation 617 ft Threshold 0 ft Heading 75
Runway 25L Length 12139 ft Width 197 ft
Elevation 620 ft Threshold 0 ft Heading 255
Airport Frequencies
Type APP Name APP 1 Frequency 119.3 MHZ
Type APP Name APP 2 Frequency 123.7 MHZ
Type ATIS Name ATIS Frequency 125.125 MHZ
Type GND Name GND Frequency 119 MHZ
Type PMSV Name VOLMET Frequency 127.875 MHZ
Type RDR Name RADAR Frequency 118.1 MHZ
Type TWR Name TWR Frequency 120.7 MHZ
Airport Navaids
Type NDB Name Sheremetyevo Frequency 338 KHZ
Type NDB Name Sheremetyevo Frequency 700 KHZ
Type NDB Name Sheremetyevo Frequency 770 KHZ
Type NDB Name Sheremetyevo Frequency 380 KHZ
Type NDB Name Sheremetyevo Frequency 338 KHZ
Type VOR-DME Name Sheremetyevo Frequency 114600 KHZ
Type NDB Name Sheremetyevo Frequency 700 KHZ
Type NDB Name Sheremetyevo Frequency 770 KHZ
Type NDB Name Sheremetyevo Frequency 380 KHZ
Airport Weather Information & NOTAM
ADDS - METARS form results

(1948 UTC 16 August 2018)
Data provider http://aviationweather.gov/adds/metars/
 
METAR text: UUEE 161930Z 34002MPS CAVOK 15/14 Q1021 R24C/CLRD62 R24L/CLRD62 NOSIG
Conditions at: UUEE (MOSCOW/SHEREMET', RU) observed 1930 UTC 16 August 2018
Temperature: 15.0°C (59°F)
Dewpoint: 14.0°C (57°F) [RH = 94%]
Pressure (altimeter): 30.15 inches Hg (1021.0 mb)
Winds: from the NNW (340 degrees) at 5 MPH (4 knots; 2.1 m/s)
Visibility: 6 or more miles (10+ km)
Ceiling: ceiling and visibility are OK
Clouds: unknown
Weather: no significant weather observed at this time

METAR text: UUEE 161900Z 34002MPS CAVOK 16/14 Q1021 R24C/CLRD62 R24L/CLRD62 NOSIG
Conditions at: UUEE (MOSCOW/SHEREMET', RU) observed 1900 UTC 16 August 2018
Temperature: 16.0°C (61°F)
Dewpoint: 14.0°C (57°F) [RH = 88%]
Pressure (altimeter): 30.15 inches Hg (1021.0 mb)
Winds: from the NNW (340 degrees) at 5 MPH (4 knots; 2.1 m/s)
Visibility: 6 or more miles (10+ km)
Ceiling: ceiling and visibility are OK
Clouds: unknown
Weather: no significant weather observed at this time

Forecast for: UUEE (MOSCOW/SHEREMET', RU)
Text: TAF UUEE 161658Z 1618/1718 02003MPS 9999 SCT030 TX22/1712Z TN12/1703Z
Forecast period: 1800 UTC 16 August 2018 to 1800 UTC 17 August 2018
Forecast type: FROM: standard forecast or significant change
Winds: from the NNE (20 degrees) at 7 MPH (6 knots; 3.1 m/s)
Visibility: 6 or more miles (10+ km)
Clouds: scattered clouds at 3000 feet AGL
Weather: no significant weather forecast for this period
Text: TEMPO 1623/1705 3100 BR FEW005 SCT011
Forecast period: 2300 UTC 16 August 2018 to 0500 UTC 17 August 2018
Forecast type: TEMPORARY: The following changes expected for less than half the time period
Visibility: 1.93 miles (3.11 km)
Clouds: few clouds at 500 feet AGL
scattered clouds at 1100 feet AGL
Weather: BR  (mist)